Time;durP1;ratioP1;P1;durP2;ratioP2;P2;SDS_P1;SDS_P2;PMS_P1;PMS_P2;Temp;Humidity;BMP_temperature;BMP_pressure;BME280_temperature;BME280_humidity;BME280_pressure;Samples;Min_cycle;Max_cycle;Signal;HPM_P1;HPM_P2
2023/04/08 00:02:02;;;;;;;;;;;18.60;43.20;;;;;;5081658;28;19913;-54
2023/04/08 00:04:27;;;;;;;;;;;18.60;43.30;;;;;;5087165;28;19973;-55
2023/04/08 00:06:53;;;;;;;;;;;18.60;43.30;;;;;;5078280;28;19916;-54
2023/04/08 00:09:19;;;;;;;;;;;18.60;43.30;;;;;;5089089;28;20391;-54
2023/04/08 00:11:44;;;;;;;;;;;18.60;43.30;;;;;;5089185;28;20131;-54
2023/04/08 00:14:10;;;;;;;;;;;18.50;43.20;;;;;;5096647;28;19919;-54
2023/04/08 00:16:35;;;;;;;;;;;18.60;43.30;;;;;;5088050;28;19919;-54
2023/04/08 00:19:01;;;;;;;;;;;18.50;43.20;;;;;;5089093;28;19923;-54
2023/04/08 00:21:26;;;;;;;;;;;18.50;43.40;;;;;;5087705;28;19920;-54
2023/04/08 00:23:52;;;;;;;;;;;18.50;43.30;;;;;;5094674;28;19912;-54
2023/04/08 00:26:18;;;;;;;;;;;18.50;43.50;;;;;;5109092;28;19991;-54
2023/04/08 00:28:44;;;;;;;;;;;18.50;43.60;;;;;;5108734;28;20447;-54
2023/04/08 00:31:09;;;;;;;;;;;18.50;43.50;;;;;;5086452;28;19912;-54
2023/04/08 00:33:35;;;;;;;;;;;18.50;43.50;;;;;;5090567;28;20042;-54
2023/04/08 00:36:00;;;;;;;;;;;18.40;43.40;;;;;;5087619;28;20407;-55
2023/04/08 00:38:26;;;;;;;;;;;18.40;43.30;;;;;;5088529;28;20322;-54
2023/04/08 00:40:51;;;;;;;;;;;18.40;43.40;;;;;;5088553;28;19908;-55
2023/04/08 00:43:19;;;;;;;;;;;18.40;43.30;;;;;;5088227;28;19924;-54
2023/04/08 00:45:45;;;;;;;;;;;18.40;43.50;;;;;;5090076;28;20057;-54
2023/04/08 00:48:10;;;;;;;;;;;18.40;43.60;;;;;;5106909;28;20422;-54
2023/04/08 00:50:36;;;;;;;;;;;18.40;43.60;;;;;;5059883;28;20411;-54
2023/04/08 00:53:01;;;;;;;;;;;18.40;43.50;;;;;;5055069;28;20387;-54
2023/04/08 00:55:27;;;;;;;;;;;18.40;43.70;;;;;;5069750;28;20292;-54
2023/04/08 00:57:52;;;;;;;;;;;18.40;43.50;;;;;;5077531;28;20265;-54
2023/04/08 01:00:18;;;;;;;;;;;18.40;43.60;;;;;;5094184;28;19915;-54
2023/04/08 01:03:02;;;;;;;;;;;18.30;43.50;;;;;;5081146;28;20430;-54
2023/04/08 01:05:42;;;;;;;;;;;18.30;43.60;;;;;;5074600;28;20364;-54
2023/04/08 01:08:08;;;;;;;;;;;18.30;43.50;;;;;;5074964;28;19909;-54
2023/04/08 01:10:33;;;;;;;;;;;18.30;43.60;;;;;;5085777;28;19912;-54
2023/04/08 01:13:02;;;;;;;;;;;18.30;43.60;;;;;;5093716;28;19914;-54
2023/04/08 01:15:28;;;;;;;;;;;18.30;43.70;;;;;;5092639;28;19960;-54
2023/04/08 01:17:54;;;;;;;;;;;18.40;43.60;;;;;;5086531;28;19951;-54
2023/04/08 01:20:20;;;;;;;;;;;18.50;43.90;;;;;;5053662;28;20007;-54
2023/04/08 01:22:45;;;;;;;;;;;18.70;43.70;;;;;;5064092;28;20403;-54
2023/04/08 01:25:15;;;;;;;;;;;18.80;43.50;;;;;;5074575;28;19947;-54
2023/04/08 01:27:41;;;;;;;;;;;19.10;43.30;;;;;;5074447;28;19912;-54
2023/04/08 01:30:07;;;;;;;;;;;19.20;42.80;;;;;;5069723;28;19996;-54
2023/04/08 01:32:32;;;;;;;;;;;19.40;42.80;;;;;;5073022;28;19916;-55
2023/04/08 01:34:58;;;;;;;;;;;19.40;42.50;;;;;;5088080;28;19916;-54
2023/04/08 01:37:23;;;;;;;;;;;19.50;42.20;;;;;;5079375;28;19936;-55
2023/04/08 01:39:49;;;;;;;;;;;19.60;41.90;;;;;;5078595;28;19947;-55
2023/04/08 01:42:14;;;;;;;;;;;19.70;41.90;;;;;;5070449;28;19919;-54
2023/04/08 01:44:40;;;;;;;;;;;19.70;41.70;;;;;;5088758;28;19978;-54
2023/04/08 01:47:05;;;;;;;;;;;19.70;41.80;;;;;;5085786;28;19969;-54
2023/04/08 01:49:31;;;;;;;;;;;19.70;41.80;;;;;;5093906;28;19918;-54
2023/04/08 01:51:56;;;;;;;;;;;19.60;42.00;;;;;;5077166;28;19920;-55
2023/04/08 01:54:21;;;;;;;;;;;19.60;42.20;;;;;;5062487;28;19935;-54
2023/04/08 01:56:47;;;;;;;;;;;19.50;42.20;;;;;;5059585;28;19923;-54
2023/04/08 01:59:13;;;;;;;;;;;19.50;42.30;;;;;;5069202;28;19995;-55
2023/04/08 02:01:38;;;;;;;;;;;19.50;42.40;;;;;;5077764;28;20361;-54
2023/04/08 02:04:04;;;;;;;;;;;19.50;42.10;;;;;;5080620;28;20373;-54
2023/04/08 02:06:30;;;;;;;;;;;19.60;42.20;;;;;;5090510;28;19908;-54
2023/04/08 02:08:55;;;;;;;;;;;19.60;42.00;;;;;;5072567;28;20337;-54
2023/04/08 02:11:20;;;;;;;;;;;19.60;42.00;;;;;;5058299;28;19996;-54
2023/04/08 02:13:46;;;;;;;;;;;19.70;42.00;;;;;;5053477;28;19913;-55
2023/04/08 02:16:15;;;;;;;;;;;19.70;41.90;;;;;;5073508;28;19908;-54
2023/04/08 02:18:44;;;;;;;;;;;19.70;42.00;;;;;;5093635;28;20018;-54
2023/04/08 02:21:12;;;;;;;;;;;19.70;42.00;;;;;;5078802;28;19915;-55
2023/04/08 02:23:38;;;;;;;;;;;19.60;42.00;;;;;;5088870;28;19913;-55
2023/04/08 02:26:03;;;;;;;;;;;19.60;42.10;;;;;;5071854;28;20375;-55
2023/04/08 02:28:29;;;;;;;;;;;19.50;42.20;;;;;;5075062;28;19913;-54
2023/04/08 02:30:55;;;;;;;;;;;19.40;42.10;;;;;;5069327;28;20021;-55
2023/04/08 02:33:20;;;;;;;;;;;19.50;42.30;;;;;;5071999;28;19963;-54
2023/04/08 02:35:46;;;;;;;;;;;19.40;42.20;;;;;;5071473;28;19908;-55
2023/04/08 02:38:12;;;;;;;;;;;19.40;42.20;;;;;;5080599;28;19920;-55
2023/04/08 02:40:37;;;;;;;;;;;19.40;42.30;;;;;;5080314;28;19913;-54
2023/04/08 02:43:03;;;;;;;;;;;19.40;42.40;;;;;;5072913;28;19912;-54
2023/04/08 02:45:32;;;;;;;;;;;19.40;42.30;;;;;;5071854;28;19908;-54
2023/04/08 02:47:58;;;;;;;;;;;19.40;42.40;;;;;;5063598;28;19958;-54
2023/04/08 02:50:23;;;;;;;;;;;19.40;42.30;;;;;;5083444;28;20389;-55
2023/04/08 02:52:49;;;;;;;;;;;19.40;42.20;;;;;;5072723;28;20339;-54
2023/04/08 02:55:14;;;;;;;;;;;19.40;42.20;;;;;;5057478;28;20400;-54
2023/04/08 02:57:41;;;;;;;;;;;19.40;42.20;;;;;;5052778;28;20315;-54
2023/04/08 03:00:07;;;;;;;;;;;19.30;42.20;;;;;;5076066;28;19916;-54
2023/04/08 03:02:32;;;;;;;;;;;19.30;42.20;;;;;;5082566;28;19991;-54
2023/04/08 03:04:58;;;;;;;;;;;19.30;42.20;;;;;;5070843;28;19944;-54
2023/04/08 03:07:23;;;;;;;;;;;19.30;42.40;;;;;;5051094;28;19920;-55
2023/04/08 03:09:49;;;;;;;;;;;19.20;42.50;;;;;;5052264;28;19913;-54
2023/04/08 03:12:14;;;;;;;;;;;19.10;42.60;;;;;;5057810;28;19920;-54
2023/04/08 03:14:40;;;;;;;;;;;19.20;42.50;;;;;;5051493;28;20323;-54
2023/04/08 03:17:05;;;;;;;;;;;19.30;42.50;;;;;;5058712;28;19917;-54
2023/04/08 03:19:31;;;;;;;;;;;19.20;42.40;;;;;;5055575;28;19924;-54
2023/04/08 03:21:56;;;;;;;;;;;19.20;42.60;;;;;;5092630;28;19912;-55
2023/04/08 03:24:22;;;;;;;;;;;19.10;42.60;;;;;;5092312;28;20086;-55
2023/04/08 03:26:47;;;;;;;;;;;19.20;42.60;;;;;;5092427;28;20379;-54
2023/04/08 03:29:12;;;;;;;;;;;19.30;42.50;;;;;;5088027;28;19924;-54
2023/04/08 03:31:38;;;;;;;;;;;19.20;42.30;;;;;;5071156;28;19908;-54
2023/04/08 03:34:03;;;;;;;;;;;19.30;42.50;;;;;;5070256;28;19912;-54
2023/04/08 03:36:29;;;;;;;;;;;19.20;42.50;;;;;;5072032;28;20360;-54
2023/04/08 03:38:55;;;;;;;;;;;19.20;42.40;;;;;;5070053;28;20392;-54
2023/04/08 03:41:20;;;;;;;;;;;19.20;42.20;;;;;;5074005;28;19962;-54
2023/04/08 03:43:46;;;;;;;;;;;19.30;42.20;;;;;;5080338;28;19920;-54
2023/04/08 03:46:11;;;;;;;;;;;19.40;42.20;;;;;;5070997;28;19999;-54
2023/04/08 03:48:37;;;;;;;;;;;19.40;42.10;;;;;;5069682;28;19908;-55
2023/04/08 03:51:02;;;;;;;;;;;19.30;42.10;;;;;;5071817;28;19920;-55
2023/04/08 03:53:28;;;;;;;;;;;19.30;42.00;;;;;;5077068;28;20002;-54
2023/04/08 03:55:54;;;;;;;;;;;19.40;42.00;;;;;;5072816;28;19920;-54
2023/04/08 03:58:20;;;;;;;;;;;19.30;41.90;;;;;;5071926;28;20486;-54
2023/04/08 04:00:45;;;;;;;;;;;19.40;42.70;;;;;;5069515;28;19913;-54
2023/04/08 04:03:11;;;;;;;;;;;19.40;42.00;;;;;;5070792;28;19912;-54
2023/04/08 04:05:40;;;;;;;;;;;19.30;41.90;;;;;;5075262;28;19994;-54
2023/04/08 04:08:05;;;;;;;;;;;19.30;41.90;;;;;;5079666;28;19917;-55
2023/04/08 04:10:31;;;;;;;;;;;19.30;41.90;;;;;;5071828;28;20003;-54
2023/04/08 04:12:56;;;;;;;;;;;19.40;42.00;;;;;;5071855;28;19909;-54
2023/04/08 04:15:22;;;;;;;;;;;19.30;41.90;;;;;;5070899;28;20284;-54
2023/04/08 04:17:49;;;;;;;;;;;19.40;41.90;;;;;;5073000;28;19908;-54
2023/04/08 04:20:14;;;;;;;;;;;19.30;41.90;;;;;;5091664;28;19916;-55
2023/04/08 04:22:40;;;;;;;;;;;19.30;41.90;;;;;;5073143;28;19913;-54
2023/04/08 04:25:05;;;;;;;;;;;19.40;41.90;;;;;;5052197;28;19917;-54
2023/04/08 04:27:31;;;;;;;;;;;19.40;42.00;;;;;;5055445;28;19920;-54
2023/04/08 04:29:56;;;;;;;;;;;19.40;42.00;;;;;;5062359;28;19913;-54
2023/04/08 04:32:22;;;;;;;;;;;19.40;42.00;;;;;;5080951;28;19913;-54
2023/04/08 04:34:47;;;;;;;;;;;19.40;41.90;;;;;;5072305;28;19909;-54
2023/04/08 04:37:13;;;;;;;;;;;19.40;41.90;;;;;;5075322;28;20011;-55
2023/04/08 04:39:38;;;;;;;;;;;19.40;41.90;;;;;;5073362;28;19929;-54
2023/04/08 04:42:04;;;;;;;;;;;19.40;41.90;;;;;;5071371;28;19920;-55
2023/04/08 04:44:29;;;;;;;;;;;19.40;41.90;;;;;;5074172;28;19916;-54
2023/04/08 04:46:55;;;;;;;;;;;19.40;41.80;;;;;;5075439;28;20003;-54
2023/04/08 04:49:20;;;;;;;;;;;19.30;41.80;;;;;;5063453;28;19969;-55
2023/04/08 04:51:46;;;;;;;;;;;19.20;41.90;;;;;;5074533;28;19919;-54
2023/04/08 04:54:11;;;;;;;;;;;19.20;42.10;;;;;;5073057;28;19917;-54
2023/04/08 04:56:37;;;;;;;;;;;19.20;42.20;;;;;;5079220;28;19973;-54
2023/04/08 04:59:04;;;;;;;;;;;19.20;42.10;;;;;;5095000;28;19912;-54
2023/04/08 05:01:29;;;;;;;;;;;19.20;42.10;;;;;;5085918;28;20279;-54
2023/04/08 05:03:55;;;;;;;;;;;19.00;42.00;;;;;;5073747;28;19991;-55
2023/04/08 05:06:21;;;;;;;;;;;19.10;42.20;;;;;;5054511;28;19938;-54
2023/04/08 05:08:47;;;;;;;;;;;19.20;42.30;;;;;;5053358;28;19912;-54
2023/04/08 05:11:12;;;;;;;;;;;19.20;42.10;;;;;;5062059;28;19912;-54
2023/04/08 05:13:38;;;;;;;;;;;19.20;42.10;;;;;;5094887;28;20273;-54
2023/04/08 05:16:03;;;;;;;;;;;19.10;42.00;;;;;;5087728;28;19913;-55
2023/04/08 05:18:29;;;;;;;;;;;19.00;42.10;;;;;;5068879;28;20011;-55
2023/04/08 05:20:54;;;;;;;;;;;19.00;42.30;;;;;;5054342;28;19913;-54
2023/04/08 05:23:20;;;;;;;;;;;19.00;42.20;;;;;;5067647;28;19922;-55
2023/04/08 05:25:45;;;;;;;;;;;19.10;42.20;;;;;;5094396;28;19956;-54
2023/04/08 05:28:11;;;;;;;;;;;19.10;42.20;;;;;;5094634;28;19973;-54
2023/04/08 05:30:36;;;;;;;;;;;19.20;42.10;;;;;;5061927;28;20026;-54
2023/04/08 05:33:02;;;;;;;;;;;19.20;42.00;;;;;;5073327;28;19916;-54
2023/04/08 05:35:27;;;;;;;;;;;19.20;41.90;;;;;;5073625;28;20439;-54
2023/04/08 05:37:53;;;;;;;;;;;19.30;41.90;;;;;;5073900;28;19930;-54
2023/04/08 05:40:18;;;;;;;;;;;19.30;41.90;;;;;;5077670;28;19942;-54
2023/04/08 05:42:44;;;;;;;;;;;19.30;41.80;;;;;;5074114;28;20275;-54
2023/04/08 05:45:09;;;;;;;;;;;19.30;41.70;;;;;;5068730;28;19912;-54
2023/04/08 05:47:35;;;;;;;;;;;19.30;41.70;;;;;;5068237;28;19920;-54
2023/04/08 05:50:00;;;;;;;;;;;19.30;41.80;;;;;;5083739;28;19919;-55
2023/04/08 05:52:26;;;;;;;;;;;19.40;41.80;;;;;;5072510;28;19908;-54
2023/04/08 05:54:51;;;;;;;;;;;19.30;41.80;;;;;;5073528;28;19920;-54
2023/04/08 05:57:17;;;;;;;;;;;19.30;41.90;;;;;;5073892;28;19999;-54
2023/04/08 05:59:42;;;;;;;;;;;19.20;42.10;;;;;;5070413;28;20363;-54
2023/04/08 06:02:08;;;;;;;;;;;19.10;42.10;;;;;;5070763;28;19920;-54
2023/04/08 06:04:33;;;;;;;;;;;19.10;42.20;;;;;;5093591;28;20007;-54
2023/04/08 06:07:01;;;;;;;;;;;19.10;42.20;;;;;;5093961;28;19908;-55
2023/04/08 06:09:27;;;;;;;;;;;19.10;42.10;;;;;;5080183;28;20285;-55
2023/04/08 06:11:52;;;;;;;;;;;19.20;42.20;;;;;;5074993;28;19912;-54
2023/04/08 06:14:19;;;;;;;;;;;19.20;42.00;;;;;;5064295;28;19913;-54
2023/04/08 06:16:45;;;;;;;;;;;19.20;42.00;;;;;;5053100;28;19917;-55
2023/04/08 06:19:10;;;;;;;;;;;19.20;41.90;;;;;;5061597;28;19966;-54
2023/04/08 06:21:36;;;;;;;;;;;19.20;41.90;;;;;;5067105;28;20332;-54
2023/04/08 06:24:01;;;;;;;;;;;19.20;42.00;;;;;;5093092;28;20375;-54
2023/04/08 06:26:27;;;;;;;;;;;19.10;42.00;;;;;;5093309;28;19908;-54
2023/04/08 06:28:52;;;;;;;;;;;19.00;42.20;;;;;;5064721;28;20285;-54
2023/04/08 06:31:18;;;;;;;;;;;19.00;42.30;;;;;;5070205;28;19936;-55
2023/04/08 06:33:43;;;;;;;;;;;19.00;42.20;;;;;;5090053;28;19912;-54
2023/04/08 06:36:09;;;;;;;;;;;19.10;42.20;;;;;;5093221;28;19940;-54
2023/04/08 06:38:35;;;;;;;;;;;19.00;42.20;;;;;;5091848;28;19920;-54
2023/04/08 06:41:04;;;;;;;;;;;19.00;42.30;;;;;;5093128;28;20272;-54
2023/04/08 06:43:30;;;;;;;;;;;19.00;42.30;;;;;;5058498;28;20334;-54
2023/04/08 06:45:55;;;;;;;;;;;19.00;42.30;;;;;;5065683;28;19916;-55
2023/04/08 06:48:22;;;;;;;;;;;19.10;42.20;;;;;;5052168;28;19913;-55
2023/04/08 06:50:48;;;;;;;;;;;19.10;42.20;;;;;;5051213;28;19913;-54
2023/04/08 06:53:13;;;;;;;;;;;19.10;42.10;;;;;;5062601;28;20011;-54
2023/04/08 06:55:39;;;;;;;;;;;19.20;42.10;;;;;;5070112;28;19912;-54
2023/04/08 06:58:04;;;;;;;;;;;19.20;41.90;;;;;;5071794;28;19998;-54
2023/04/08 07:00:30;;;;;;;;;;;19.20;42.00;;;;;;5067181;28;20423;-55
2023/04/08 07:02:55;;;;;;;;;;;19.10;42.00;;;;;;5065311;28;20383;-55
2023/04/08 07:05:21;;;;;;;;;;;19.00;42.20;;;;;;5064088;28;19917;-55
2023/04/08 07:07:46;;;;;;;;;;;18.90;42.30;;;;;;5071297;28;19991;-55
2023/04/08 07:10:12;;;;;;;;;;;19.00;42.40;;;;;;5074599;28;20342;-54
2023/04/08 07:12:37;;;;;;;;;;;19.00;42.30;;;;;;5092700;28;19995;-55
2023/04/08 07:15:03;;;;;;;;;;;19.10;42.30;;;;;;5072226;28;19920;-54
2023/04/08 07:17:28;;;;;;;;;;;19.10;42.20;;;;;;5069700;28;19916;-54
2023/04/08 07:19:54;;;;;;;;;;;19.20;42.10;;;;;;5067890;28;20361;-55
2023/04/08 07:22:20;;;;;;;;;;;19.20;42.00;;;;;;5076033;28;19917;-55
2023/04/08 07:24:48;;;;;;;;;;;19.20;42.00;;;;;;5065875;28;19924;-54
2023/04/08 07:27:15;;;;;;;;;;;19.20;42.00;;;;;;5070094;28;19958;-54
2023/04/08 07:29:41;;;;;;;;;;;19.30;42.00;;;;;;5070942;28;20541;-55
2023/04/08 07:32:06;;;;;;;;;;;19.30;41.90;;;;;;5083943;28;19979;-55
2023/04/08 07:34:33;;;;;;;;;;;19.30;41.90;;;;;;5069230;28;20016;-55
2023/04/08 07:36:59;;;;;;;;;;;19.30;41.90;;;;;;5079101;28;19922;-54
2023/04/08 07:39:24;;;;;;;;;;;19.30;41.90;;;;;;5070520;28;19973;-54
2023/04/08 07:41:50;;;;;;;;;;;19.30;41.90;;;;;;5071043;28;19961;-54
2023/04/08 07:44:16;;;;;;;;;;;19.30;41.90;;;;;;5071235;28;19924;-55
2023/04/08 07:46:41;;;;;;;;;;;19.30;41.90;;;;;;5076497;28;19912;-54
2023/04/08 07:49:06;;;;;;;;;;;19.30;41.90;;;;;;5060495;28;19931;-55
2023/04/08 07:51:32;;;;;;;;;;;19.30;41.80;;;;;;5056295;28;19970;-54
2023/04/08 07:53:58;;;;;;;;;;;19.30;41.90;;;;;;5068929;28;19913;-54
2023/04/08 07:56:23;;;;;;;;;;;19.30;41.90;;;;;;5052108;28;19909;-54
2023/04/08 07:58:49;;;;;;;;;;;19.30;41.80;;;;;;5062011;28;19912;-54
2023/04/08 08:01:16;;;;;;;;;;;19.30;41.80;;;;;;5072810;28;19917;-54
2023/04/08 08:03:42;;;;;;;;;;;19.30;41.80;;;;;;5058823;28;19917;-54
2023/04/08 08:06:07;;;;;;;;;;;19.30;41.80;;;;;;5069778;28;19919;-54
2023/04/08 08:08:35;;;;;;;;;;;19.30;41.90;;;;;;5071484;28;20293;-55
2023/04/08 08:11:00;;;;;;;;;;;19.30;41.90;;;;;;5075508;28;20311;-54
2023/04/08 08:13:26;;;;;;;;;;;19.30;42.00;;;;;;5075853;28;19915;-54
2023/04/08 08:15:52;;;;;;;;;;;19.30;42.00;;;;;;5074767;28;20265;-54
2023/04/08 08:18:17;;;;;;;;;;;19.20;42.00;;;;;;5065080;28;19947;-54
2023/04/08 08:20:43;;;;;;;;;;;19.30;42.10;;;;;;5055299;28;20285;-54
2023/04/08 08:23:08;;;;;;;;;;;19.20;42.00;;;;;;5071904;28;19913;-54
2023/04/08 08:25:34;;;;;;;;;;;19.30;42.10;;;;;;5079014;28;19912;-54
2023/04/08 08:27:59;;;;;;;;;;;19.30;42.10;;;;;;5075505;28;20003;-55
2023/04/08 08:30:25;;;;;;;;;;;19.30;42.10;;;;;;5074149;28;19923;-54
2023/04/08 08:32:50;;;;;;;;;;;19.30;42.10;;;;;;5074270;28;20372;-55
2023/04/08 08:35:16;;;;;;;;;;;19.30;42.20;;;;;;5076177;28;19912;-54
2023/04/08 08:37:42;;;;;;;;;;;19.30;42.40;;;;;;5074395;28;19924;-55
2023/04/08 08:40:07;;;;;;;;;;;19.20;42.50;;;;;;5074916;28;20280;-55
2023/04/08 08:42:33;;;;;;;;;;;19.20;42.50;;;;;;5073905;28;19931;-54
2023/04/08 08:45:00;;;;;;;;;;;19.30;42.60;;;;;;5090299;28;19942;-54
2023/04/08 08:47:26;;;;;;;;;;;19.30;42.50;;;;;;5086681;28;20007;-54
2023/04/08 08:49:51;;;;;;;;;;;19.30;42.50;;;;;;5074642;28;20027;-54
2023/04/08 08:52:17;;;;;;;;;;;19.30;42.60;;;;;;5080532;28;19916;-54
2023/04/08 08:54:43;;;;;;;;;;;19.30;42.50;;;;;;5072312;28;19916;-54
2023/04/08 08:57:18;;;;;;;;;;;19.40;42.50;;;;;;5080242;28;19958;-54
2023/04/08 08:59:46;;;;;;;;;;;19.40;42.50;;;;;;5072494;28;20015;-54
2023/04/08 09:02:28;;;;;;;;;;;19.40;42.50;;;;;;5072536;28;20396;-54
2023/04/08 09:05:01;;;;;;;;;;;19.40;42.60;;;;;;5078237;28;19920;-54
2023/04/08 09:07:26;;;;;;;;;;;19.50;42.50;;;;;;5070811;28;20362;-53
2023/04/08 09:09:52;;;;;;;;;;;19.60;42.40;;;;;;5077198;28;20056;-54
2023/04/08 09:12:18;;;;;;;;;;;19.70;42.20;;;;;;5073710;28;20113;-54
2023/04/08 09:14:43;;;;;;;;;;;19.70;42.20;;;;;;5073461;28;19912;-54
2023/04/08 09:17:09;;;;;;;;;;;19.80;42.10;;;;;;5067881;28;19912;-54
2023/04/08 09:19:34;;;;;;;;;;;19.90;42.00;;;;;;5056903;28;19923;-54
2023/04/08 09:22:03;;;;;;;;;;;19.90;41.90;;;;;;5054486;28;20004;-54
2023/04/08 09:24:29;;;;;;;;;;;19.90;42.40;;;;;;5057277;28;19919;-54
2023/04/08 09:26:55;;;;;;;;;;;19.90;42.20;;;;;;5070505;28;19912;-54
2023/04/08 09:29:22;;;;;;;;;;;19.90;42.10;;;;;;5073916;28;20376;-54
2023/04/08 09:31:47;;;;;;;;;;;19.70;42.20;;;;;;5072111;28;19912;-54
2023/04/08 09:34:15;;;;;;;;;;;19.90;42.20;;;;;;5073890;28;19908;-54
2023/04/08 09:36:40;;;;;;;;;;;19.90;42.40;;;;;;5078677;28;19923;-53
2023/04/08 09:39:06;;;;;;;;;;;19.90;42.70;;;;;;5072570;28;19921;-54
2023/04/08 09:41:35;;;;;;;;;;;19.90;42.60;;;;;;5065980;28;20011;-54
2023/04/08 09:44:02;;;;;;;;;;;19.80;42.30;;;;;;5069563;28;20007;-54
2023/04/08 09:46:30;;;;;;;;;;;19.80;42.50;;;;;;5064830;28;19912;-54
2023/04/08 09:49:12;;;;;;;;;;;19.80;43.30;;;;;;5057368;28;19946;-54
2023/04/08 09:51:43;;;;;;;;;;;19.70;43.10;;;;;;5053717;28;19915;-54
2023/04/08 09:54:11;;;;;;;;;;;19.70;43.10;;;;;;5057996;28;19909;-54
2023/04/08 09:56:46;;;;;;;;;;;19.70;43.20;;;;;;5074533;28;19912;-54
2023/04/08 09:59:16;;;;;;;;;;;19.60;43.30;;;;;;5087695;28;19977;-55
2023/04/08 10:01:43;;;;;;;;;;;19.60;43.40;;;;;;5074108;28;20003;-54
2023/04/08 10:04:11;;;;;;;;;;;19.60;43.30;;;;;;5054971;28;19913;-54
2023/04/08 10:06:36;;;;;;;;;;;19.50;43.40;;;;;;5069766;28;20301;-54
2023/04/08 10:09:03;;;;;;;;;;;19.50;43.30;;;;;;5089192;28;19968;-54
2023/04/08 10:11:28;;;;;;;;;;;19.50;43.50;;;;;;5086982;28;19920;-54
2023/04/08 10:13:54;;;;;;;;;;;19.60;43.40;;;;;;5072745;28;20276;-55
2023/04/08 10:16:20;;;;;;;;;;;19.60;43.50;;;;;;5091412;28;19944;-55
2023/04/08 10:18:46;;;;;;;;;;;19.60;43.50;;;;;;5093600;28;19923;-54
2023/04/08 10:21:30;;;;;;;;;;;19.60;43.50;;;;;;5076877;28;20320;-54
2023/04/08 10:23:58;;;;;;;;;;;19.60;43.70;;;;;;5074996;28;19916;-54
2023/04/08 10:26:32;;;;;;;;;;;19.60;43.50;;;;;;5084571;28;19985;-54
2023/04/08 10:29:16;;;;;;;;;;;19.70;43.40;;;;;;5072856;28;20300;-54
2023/04/08 10:31:41;;;;;;;;;;;19.80;43.50;;;;;;5072164;28;19913;-54
2023/04/08 10:34:27;;;;;;;;;;;19.90;43.20;;;;;;5066344;28;20411;-54
2023/04/08 10:36:54;;;;;;;;;;;19.90;43.40;;;;;;5052868;28;20011;-54
2023/04/08 10:39:20;;;;;;;;;;;19.90;43.20;;;;;;5060787;28;19920;-54
2023/04/08 10:41:46;;;;;;;;;;;19.90;43.10;;;;;;5078231;28;19916;-54
2023/04/08 10:44:17;;;;;;;;;;;19.90;43.10;;;;;;5072901;28;19915;-54
2023/04/08 10:46:43;;;;;;;;;;;19.90;43.00;;;;;;5070715;28;19913;-54
2023/04/08 10:49:09;;;;;;;;;;;19.90;43.20;;;;;;5072690;28;20392;-54
2023/04/08 10:51:34;;;;;;;;;;;19.90;43.00;;;;;;5071337;28;19913;-54
2023/04/08 10:54:10;;;;;;;;;;;20.00;43.10;;;;;;5087061;28;20550;-54
2023/04/08 10:56:35;;;;;;;;;;;20.00;43.20;;;;;;5071541;28;19939;-54
2023/04/08 10:59:01;;;;;;;;;;;19.90;43.10;;;;;;5072527;28;20356;-55
2023/04/08 11:01:27;;;;;;;;;;;19.90;43.30;;;;;;5071148;28;19916;-54
2023/04/08 11:03:52;;;;;;;;;;;19.90;43.30;;;;;;5074718;28;19924;-54
2023/04/08 11:06:18;;;;;;;;;;;19.90;43.20;;;;;;5072351;28;19908;-54
2023/04/08 11:08:44;;;;;;;;;;;19.90;43.30;;;;;;5054563;28;19995;-54
2023/04/08 11:11:10;;;;;;;;;;;19.90;43.40;;;;;;5058257;28;19959;-55
2023/04/08 11:13:39;;;;;;;;;;;20.00;43.30;;;;;;5058689;28;19916;-54
2023/04/08 11:16:05;;;;;;;;;;;20.00;43.30;;;;;;5051395;28;19909;-54
2023/04/08 11:18:31;;;;;;;;;;;20.10;43.20;;;;;;5067701;28;20274;-54
2023/04/08 11:20:57;;;;;;;;;;;20.10;43.20;;;;;;5052102;28;19909;-54
2023/04/08 11:23:26;;;;;;;;;;;20.20;42.90;;;;;;5067799;28;20377;-54
2023/04/08 11:25:51;;;;;;;;;;;20.20;43.00;;;;;;5083466;28;19913;-54
2023/04/08 11:28:17;;;;;;;;;;;20.30;43.00;;;;;;5057210;28;19966;-54
2023/04/08 11:30:42;;;;;;;;;;;20.20;42.90;;;;;;5051256;28;19912;-55
2023/04/08 11:33:08;;;;;;;;;;;20.20;43.10;;;;;;5066203;28;19909;-54
2023/04/08 11:35:33;;;;;;;;;;;20.20;43.10;;;;;;5071799;28;20432;-57
2023/04/08 11:37:58;;;;;;;;;;;20.20;43.10;;;;;;5083917;28;20281;-54
2023/04/08 11:40:25;;;;;;;;;;;20.20;43.10;;;;;;5092078;28;19907;-54
2023/04/08 11:42:50;;;;;;;;;;;20.20;43.20;;;;;;5061540;28;20324;-54
2023/04/08 11:45:17;;;;;;;;;;;20.10;42.90;;;;;;5066531;28;19909;-54
2023/04/08 11:47:42;;;;;;;;;;;20.20;43.10;;;;;;5071919;28;19915;-54
2023/04/08 11:50:08;;;;;;;;;;;20.20;43.30;;;;;;5091997;28;20280;-54
2023/04/08 11:52:47;;;;;;;;;;;20.20;43.30;;;;;;5079500;28;20368;-54
2023/04/08 11:55:22;;;;;;;;;;;20.20;43.40;;;;;;5064859;28;19956;-54
2023/04/08 11:57:47;;;;;;;;;;;20.10;43.10;;;;;;5072018;28;20384;-55
2023/04/08 12:00:13;;;;;;;;;;;20.10;43.40;;;;;;5063158;28;20005;-55
2023/04/08 12:02:39;;;;;;;;;;;20.10;43.50;;;;;;5070880;28;19919;-54
2023/04/08 12:05:05;;;;;;;;;;;20.00;43.60;;;;;;5087282;28;20394;-54
2023/04/08 12:07:31;;;;;;;;;;;19.90;43.50;;;;;;5071823;28;20392;-54
2023/04/08 12:09:56;;;;;;;;;;;19.90;43.60;;;;;;5076428;28;19943;-54
2023/04/08 12:12:22;;;;;;;;;;;19.90;43.60;;;;;;5091996;28;19916;-54
2023/04/08 12:14:47;;;;;;;;;;;19.90;43.60;;;;;;5068504;28;19952;-54
2023/04/08 12:17:13;;;;;;;;;;;20.00;43.70;;;;;;5051889;28;19912;-54
2023/04/08 12:19:38;;;;;;;;;;;20.00;43.60;;;;;;5056466;28;20383;-54
2023/04/08 12:22:04;;;;;;;;;;;20.10;43.70;;;;;;5091945;28;20360;-55
2023/04/08 12:24:29;;;;;;;;;;;20.10;43.70;;;;;;5090484;28;20319;-54
2023/04/08 12:26:55;;;;;;;;;;;20.10;43.60;;;;;;5092038;28;19958;-54
2023/04/08 12:29:20;;;;;;;;;;;20.10;43.50;;;;;;5066774;28;19920;-55
2023/04/08 12:31:46;;;;;;;;;;;20.10;43.70;;;;;;5065533;28;19937;-54
2023/04/08 12:34:12;;;;;;;;;;;20.00;43.50;;;;;;5064962;28;19975;-54
2023/04/08 12:36:37;;;;;;;;;;;20.10;43.50;;;;;;5051462;28;19908;-54
2023/04/08 12:39:03;;;;;;;;;;;20.00;43.40;;;;;;5051311;28;19983;-54
2023/04/08 12:41:28;;;;;;;;;;;20.10;43.70;;;;;;5051429;28;19909;-54
2023/04/08 12:43:54;;;;;;;;;;;20.00;43.80;;;;;;5084425;28;20380;-54
2023/04/08 12:46:20;;;;;;;;;;;20.10;43.60;;;;;;5088287;28;20293;-55
2023/04/08 12:48:47;;;;;;;;;;;20.20;43.70;;;;;;5055154;28;20376;-54
2023/04/08 12:51:12;;;;;;;;;;;20.30;43.80;;;;;;5054845;28;19924;-54
2023/04/08 12:53:38;;;;;;;;;;;20.30;43.60;;;;;;5082330;28;20291;-54
2023/04/08 12:56:03;;;;;;;;;;;20.30;43.30;;;;;;5061693;28;19913;-54
2023/04/08 12:58:29;;;;;;;;;;;20.20;43.40;;;;;;5054919;28;19953;-54
2023/04/08 13:00:55;;;;;;;;;;;20.20;43.60;;;;;;5057889;28;20250;-54
2023/04/08 13:03:20;;;;;;;;;;;20.10;43.50;;;;;;5071386;28;19969;-54
2023/04/08 13:05:45;;;;;;;;;;;20.00;43.50;;;;;;5070157;28;19923;-54
2023/04/08 13:08:11;;;;;;;;;;;20.10;43.60;;;;;;5066222;28;19908;-54
2023/04/08 13:10:37;;;;;;;;;;;20.10;43.70;;;;;;5069205;28;19919;-54
2023/04/08 13:13:02;;;;;;;;;;;20.20;43.60;;;;;;5072491;28;19923;-54
2023/04/08 13:15:27;;;;;;;;;;;20.30;43.70;;;;;;5072355;28;20315;-54
2023/04/08 13:17:53;;;;;;;;;;;20.30;43.60;;;;;;5070713;28;19909;-54
2023/04/08 13:20:18;;;;;;;;;;;20.40;43.50;;;;;;5056699;28;19925;-55
2023/04/08 13:22:44;;;;;;;;;;;20.40;43.30;;;;;;5066226;28;20026;-55
2023/04/08 13:25:09;;;;;;;;;;;20.40;43.20;;;;;;5074331;28;19932;-55
2023/04/08 13:27:35;;;;;;;;;;;20.30;43.00;;;;;;5078769;28;20012;-55
2023/04/08 13:30:00;;;;;;;;;;;20.30;43.50;;;;;;5091837;28;19916;-55
2023/04/08 13:32:26;;;;;;;;;;;20.30;43.40;;;;;;5067880;28;19912;-54
2023/04/08 13:34:52;;;;;;;;;;;20.40;43.70;;;;;;5052630;28;20387;-55
2023/04/08 13:37:17;;;;;;;;;;;20.30;43.50;;;;;;5067405;28;19953;-55
2023/04/08 13:39:43;;;;;;;;;;;20.30;43.50;;;;;;5072573;28;20365;-54
2023/04/08 13:42:08;;;;;;;;;;;20.30;43.70;;;;;;5074162;28;19909;-54
2023/04/08 13:44:34;;;;;;;;;;;20.30;43.60;;;;;;5073045;28;19909;-55
2023/04/08 13:46:59;;;;;;;;;;;20.30;43.80;;;;;;5073092;28;19928;-54
2023/04/08 13:49:25;;;;;;;;;;;20.20;43.70;;;;;;5072984;28;19916;-54
2023/04/08 13:51:50;;;;;;;;;;;20.20;44.00;;;;;;5069781;28;19916;-54
2023/04/08 13:54:15;;;;;;;;;;;20.20;44.00;;;;;;5059925;28;19916;-53
2023/04/08 13:56:41;;;;;;;;;;;20.40;43.80;;;;;;5058701;28;19913;-54
2023/04/08 13:59:06;;;;;;;;;;;20.60;43.30;;;;;;5073454;28;19912;-54
2023/04/08 14:01:32;;;;;;;;;;;20.60;43.20;;;;;;5071974;28;20420;-55
2023/04/08 14:03:57;;;;;;;;;;;20.70;43.50;;;;;;5073590;28;19931;-55
2023/04/08 14:06:23;;;;;;;;;;;20.60;43.70;;;;;;5071499;28;20338;-55
2023/04/08 14:08:48;;;;;;;;;;;20.60;44.00;;;;;;5073838;28;19955;-55
2023/04/08 14:11:14;;;;;;;;;;;20.50;44.10;;;;;;5073291;28;19971;-55